Time;durP1;ratioP1;P1;durP2;ratioP2;P2;SDS_P1;SDS_P2;PMS_P1;PMS_P2;Temp;Humidity;BMP_temperature;BMP_pressure;BME280_temperature;BME280_humidity;BME280_pressure;Samples;Min_cycle;Max_cycle;Signal;HPM_P1;HPM_P2
2023/04/21 00:02:40;;;;;;;31.97;16.40;;;;;;;1.47;100.00;96754.88;10418282;28;20319;-67
2023/04/21 00:07:40;;;;;;;37.07;15.73;;;;;;;1.64;100.00;96754.63;10418369;28;20197;-67
2023/04/21 00:12:41;;;;;;;29.03;15.37;;;;;;;1.41;100.00;96754.34;10418209;28;20212;-67
2023/04/21 00:17:41;;;;;;;36.47;17.33;;;;;;;1.59;100.00;96746.34;10418259;28;20228;-66
2023/04/21 00:22:42;;;;;;;28.87;16.03;;;;;;;1.30;100.00;96748.22;10417281;28;20232;-67
2023/04/21 00:27:42;;;;;;;27.07;13.77;;;;;;;1.46;100.00;96748.09;10417850;28;20200;-66
2023/04/21 00:32:44;;;;;;;24.23;14.30;;;;;;;1.28;100.00;96738.00;10399502;28;20211;-67
2023/04/21 00:37:44;;;;;;;21.50;13.70;;;;;;;1.23;100.00;96737.47;10417438;28;20207;-66
2023/04/21 00:42:45;;;;;;;25.80;13.17;;;;;;;1.07;100.00;96740.19;10416841;28;20718;-67
2023/04/21 00:47:45;;;;;;;28.07;13.90;;;;;;;1.06;100.00;96734.22;10417036;28;20192;-67
2023/04/21 00:52:45;;;;;;;23.20;13.43;;;;;;;0.96;100.00;96738.28;10399057;28;20208;-66
2023/04/21 00:57:47;;;;;;;22.03;13.13;;;;;;;1.00;100.00;96736.34;10416564;28;20294;-67
2023/04/21 01:02:48;;;;;;;27.80;12.83;;;;;;;0.87;100.00;96723.38;10414942;28;20639;-66
2023/04/21 01:07:49;;;;;;;23.77;12.90;;;;;;;0.91;100.00;96727.44;10416313;28;20199;-67
2023/04/21 01:12:49;;;;;;;20.50;12.23;;;;;;;0.77;100.00;96717.16;10398261;28;20211;-67
2023/04/21 01:17:52;;;;;;;29.10;12.80;;;;;;;0.78;100.00;96713.66;10415780;28;20242;-66
2023/04/21 01:22:53;;;;;;;21.70;12.40;;;;;;;0.69;100.00;96704.75;10397036;28;20937;-68
2023/04/21 01:27:53;;;;;;;20.53;11.53;;;;;;;0.66;100.00;96710.91;10415042;28;20287;-66
2023/04/21 01:32:57;;;;;;;23.77;12.60;;;;;;;0.69;100.00;96710.72;10396784;28;20208;-66
2023/04/21 01:38:00;;;;;;;22.03;11.93;;;;;;;0.67;100.00;96710.00;10397085;28;20200;-67
2023/04/21 01:43:00;;;;;;;19.77;11.53;;;;;;;0.61;100.00;96710.34;10414767;28;20769;-67
2023/04/21 01:48:01;;;;;;;27.17;12.07;;;;;;;0.65;100.00;96695.56;10396353;28;20538;-66
2023/04/21 01:53:01;;;;;;;21.77;12.37;;;;;;;0.46;100.00;96698.41;10414006;28;20208;-67
2023/04/21 01:58:01;;;;;;;20.07;11.70;;;;;;;0.45;100.00;96701.94;10396141;28;20204;-67
2023/04/21 02:03:03;;;;;;;23.70;12.07;;;;;;;0.74;100.00;96707.88;10395956;28;20223;-66
2023/04/21 02:08:05;;;;;;;21.57;11.80;;;;;;;0.97;100.00;96711.56;10413476;28;20559;-66
2023/04/21 02:13:05;;;;;;;37.43;14.63;;;;;;;1.23;100.00;96709.91;10413140;28;21016;-67
2023/04/21 02:18:07;;;;;;;18.73;11.50;;;;;;;1.31;100.00;96718.91;10395758;28;20201;-66
2023/04/21 02:23:07;;;;;;;20.27;11.63;;;;;;;1.40;100.00;96720.91;10412858;28;20235;-67
2023/04/21 02:28:07;;;;;;;25.53;12.40;;;;;;;1.38;100.00;96718.41;10412213;28;20200;-67
2023/04/21 02:33:08;;;;;;;22.47;12.37;;;;;;;1.39;100.00;96724.41;10395149;28;20760;-68
2023/04/21 02:38:11;;;;;;;21.03;11.90;;;;;;;1.42;100.00;96721.63;10412796;28;20295;-68
2023/04/21 02:43:15;;;;;;;26.17;11.57;;;;;;;1.50;100.00;96727.13;10412502;28;20222;-67
2023/04/21 02:48:19;;;;;;;26.27;12.40;;;;;;;1.51;100.00;96728.75;10396791;28;20205;-67
2023/04/21 02:53:20;;;;;;;18.67;10.40;;;;;;;1.71;100.00;96739.56;10371397;28;20216;-67
2023/04/21 02:58:21;;;;;;;17.90;10.30;;;;;;;1.73;100.00;96737.69;10353829;28;20679;-67
2023/04/21 03:03:21;;;;;;;25.53;12.70;;;;;;;1.82;100.00;96738.84;10382863;28;20231;-66
2023/04/21 03:08:24;;;;;;;26.80;12.47;;;;;;;1.82;100.00;96738.84;10394138;28;20193;-66
2023/04/21 03:13:24;;;;;;;21.40;10.13;;;;;;;1.90;100.00;96744.31;10393699;28;20211;-67
2023/04/21 03:18:25;;;;;;;16.17;10.73;;;;;;;-145.68;100.00;63218.00;10411744;28;20199;-67
2023/04/21 03:23:25;;;;;;;28.27;10.37;;;;;;;1.88;100.00;96747.00;10368502;28;20315;-67
2023/04/21 03:28:25;;;;;;;18.90;11.87;;;;;;;2.10;100.00;96738.66;10369206;28;20189;-67
2023/04/21 03:33:26;;;;;;;24.33;10.90;;;;;;;2.11;100.00;96742.06;10370278;28;20215;-67
2023/04/21 03:38:27;;;;;;;18.00;11.60;;;;;;;2.06;100.00;96742.38;10369013;28;20276;-67
2023/04/21 03:43:28;;;;;;;16.90;9.87;;;;;;;2.17;100.00;96746.81;10368677;28;20227;-66
2023/04/21 03:48:28;;;;;;;17.60;10.07;;;;;;;2.24;100.00;96742.91;10368539;28;20189;-67
2023/04/21 03:53:28;;;;;;;19.67;11.13;;;;;;;2.16;100.00;96750.34;10367802;28;20579;-66
2023/04/21 03:58:29;;;;;;;29.60;11.87;;;;;;;2.00;100.00;96745.38;10368879;28;20258;-66
2023/04/21 04:03:29;;;;;;;18.23;9.60;;;;;;;1.99;100.00;96741.16;10369176;28;20296;-66
2023/04/21 04:08:30;;;;;;;18.53;10.53;;;;;;;1.75;100.00;96739.25;10369589;28;20264;-66
2023/04/21 04:13:30;;;;;;;20.03;11.07;;;;;;;1.67;100.00;96731.19;10369572;28;20259;-66
2023/04/21 04:18:30;;;;;;;21.90;10.37;;;;;;;1.74;100.00;96745.34;10369369;28;20193;-66
2023/04/21 04:23:31;;;;;;;17.17;9.97;;;;;;;1.86;100.00;96740.31;10423367;22;20358;-63
2023/04/21 04:28:32;;;;;;;26.73;13.70;;;;;;;1.74;100.00;96740.16;10409556;28;20208;-63
2023/04/21 04:33:32;;;;;;;32.67;19.47;;;;;;;1.66;100.00;96744.19;10409780;28;20212;-63
2023/04/21 04:38:36;;;;;;;26.03;14.10;;;;;;;1.67;100.00;96738.09;10416157;28;20284;-60
2023/04/21 04:43:37;;;;;;;29.13;15.70;;;;;;;1.62;100.00;96730.66;10416550;28;20228;-63
2023/04/21 04:48:38;;;;;;;27.03;16.97;;;;;;;1.92;100.00;96732.16;10416974;28;20225;-63
2023/04/21 04:53:38;;;;;;;143.97;50.80;;;;;;;1.98;100.00;96731.72;10416271;28;20216;-62
2023/04/21 04:58:39;;;;;;;23.23;13.50;;;;;;;2.20;100.00;96740.63;10416420;28;20649;-61
2023/04/21 05:03:40;;;;;;;38.27;18.60;;;;;;;2.39;100.00;96735.88;10416151;28;20579;-63
2023/04/21 05:08:40;;;;;;;16.90;11.23;;;;;;;2.68;100.00;96739.00;10415918;28;20238;-62
2023/04/21 05:13:40;;;;;;;20.77;11.60;;;;;;;2.96;100.00;96738.84;10416024;28;20208;-62
2023/04/21 05:18:41;;;;;;;19.70;12.10;;;;;;;3.23;100.00;96746.38;10415474;28;20708;-62
2023/04/21 05:23:41;;;;;;;17.33;10.97;;;;;;;3.44;100.00;96746.59;10415169;28;20240;-62
2023/04/21 05:28:41;;;;;;;30.57;11.27;;;;;;;3.67;100.00;96744.09;10415173;28;20682;-61
2023/04/21 05:33:42;;;;;;;19.10;10.20;;;;;;;4.00;100.00;96734.78;10414705;28;20683;-63
2023/04/21 05:38:42;;;;;;;17.50;11.63;;;;;;;4.55;100.00;96738.38;10415017;28;20662;-63
2023/04/21 05:43:42;;;;;;;19.30;11.77;;;;;;;5.07;100.00;96737.81;10414103;28;20779;-64
2023/04/21 05:48:43;;;;;;;12.50;9.53;;;;;;;5.95;100.00;96728.97;10414250;28;20670;-63
2023/04/21 05:53:44;;;;;;;18.07;9.17;;;;;;;7.06;100.00;96693.56;10414026;28;20658;-63
2023/04/21 05:58:44;;;;;;;12.90;7.67;;;;;;;7.89;100.00;96634.91;10414058;28;20659;-62
2023/04/21 06:03:47;;;;;;;8.70;6.13;;;;;;;8.20;100.00;96599.78;10412395;28;20332;-63
2023/04/21 06:08:48;;;;;;;15.27;5.30;;;;;;;9.34;100.00;96564.53;10411817;28;20279;-64
2023/04/21 06:13:49;;;;;;;13.90;4.85;;;;;;;10.43;100.00;96542.22;10413125;28;20637;-64
2023/04/21 06:18:49;;;;;;;11.50;4.97;;;;;;;11.71;100.00;96512.03;10412145;28;20696;-64
2023/04/21 06:23:50;;;;;;;11.40;4.57;;;;;;;11.14;100.00;96529.50;10412780;28;20239;-63
2023/04/21 06:28:50;;;;;;;8.00;3.83;;;;;;;11.96;91.05;96457.69;10412932;28;20597;-62
2023/04/21 06:33:50;;;;;;;10.15;3.80;;;;;;;12.74;91.43;96491.84;10411002;28;20291;-62
2023/04/21 06:38:51;;;;;;;6.70;2.92;;;;;;;13.36;70.11;96314.59;10409977;28;20299;-62
2023/04/21 06:43:51;;;;;;;6.45;2.55;;;;;;;13.35;67.79;96311.16;10410675;28;20216;-62
2023/04/21 06:48:51;;;;;;;7.88;3.15;;;;;;;13.86;64.69;96304.25;10412323;28;20235;-63
2023/04/21 06:53:52;;;;;;;10.00;2.63;;;;;;;13.71;63.42;96299.81;10411597;28;20224;-63
2023/04/21 06:58:52;;;;;;;6.07;2.92;;;;;;;13.53;67.11;96367.84;10410469;28;20203;-61
2023/04/21 07:03:52;;;;;;;8.15;3.00;;;;;;;13.45;61.34;96274.03;10405049;28;20216;-63
2023/04/21 07:08:53;;;;;;;9.60;2.60;;;;;;;13.72;62.02;96309.34;10410233;28;20192;-62
2023/04/21 07:13:54;;;;;;;7.88;3.45;;;;;;;13.97;59.73;96292.38;10410064;28;20290;-63
2023/04/21 07:18:54;;;;;;;18.88;3.22;;;;;;;14.46;61.33;96325.84;10409828;28;20196;-63
2023/04/21 07:23:55;;;;;;;9.13;3.17;;;;;;;14.35;59.94;96306.09;10408263;28;20333;-63
2023/04/21 07:28:57;;;;;;;8.32;3.10;;;;;;;15.18;58.51;96297.53;10409716;28;20200;-63
2023/04/21 07:33:57;;;;;;;6.78;3.20;;;;;;;15.75;54.91;96261.16;10409575;28;20207;-64
2023/04/21 07:38:57;;;;;;;16.65;3.72;;;;;;;16.83;53.45;96254.06;10408641;28;20196;-64
2023/04/21 07:43:58;;;;;;;12.88;3.83;;;;;;;16.26;53.43;96240.50;10410693;28;20312;-63
2023/04/21 07:48:59;;;;;;;7.10;3.67;;;;;;;15.67;53.84;96237.59;10409040;28;20204;-64
2023/04/21 07:53:59;;;;;;;10.73;2.78;;;;;;;15.57;57.89;96316.38;10409088;28;20212;-62
2023/04/21 07:58:59;;;;;;;9.70;2.78;;;;;;;15.79;52.54;96192.94;10407979;28;20234;-65
2023/04/21 08:04:00;;;;;;;7.15;2.97;;;;;;;15.68;53.03;96232.13;10408767;28;20231;-64
2023/04/21 08:09:00;;;;;;;11.70;3.03;;;;;;;15.75;54.93;96273.56;10410181;28;20193;-65
2023/04/21 08:14:01;;;;;;;5.60;2.30;;;;;;;15.09;53.94;96233.56;10417448;28;20213;-63
2023/04/21 08:19:01;;;;;;;7.97;2.88;;;;;;;14.47;54.66;96229.94;10416720;28;20219;-63
2023/04/21 08:24:01;;;;;;;6.07;2.83;;;;;;;14.76;54.37;96247.41;10415724;28;20240;-65
2023/04/21 08:29:02;;;;;;;10.15;3.15;;;;;;;15.55;52.89;96242.63;10414920;28;20215;-64
2023/04/21 08:34:03;;;;;;;6.45;2.80;;;;;;;15.56;52.76;96233.72;10415995;28;20307;-63
2023/04/21 08:39:03;;;;;;;4.88;1.95;;;;;;;14.99;51.77;96201.44;10414330;28;20284;-63
2023/04/21 08:44:04;;;;;;;32.83;3.15;;;;;;;15.95;50.17;96194.38;10412728;28;20295;-64
2023/04/21 08:49:05;;;;;;;11.85;2.25;;;;;;;15.42;48.17;96139.66;10413578;28;20658;-64
2023/04/21 08:54:07;;;;;;;14.40;2.53;;;;;;;15.88;48.22;96162.69;10415064;28;20212;-63
2023/04/21 08:59:07;;;;;;;13.20;2.55;;;;;;;16.93;47.62;96189.13;10397399;28;20559;-65
2023/04/21 09:04:17;;;;;;;11.00;2.55;;;;;;;16.38;48.15;96168.31;10413839;28;20300;-63
2023/04/21 09:09:17;;;;;;;8.85;2.40;;;;;;;16.74;45.44;96129.16;10415282;28;20224;-64
2023/04/21 09:14:19;;;;;;;12.60;2.75;;;;;;;16.15;45.40;96096.59;10413242;28;20323;-65
2023/04/21 09:19:19;;;;;;;8.45;2.22;;;;;;;17.13;44.37;96108.03;10414139;28;20199;-62
2023/04/21 09:24:19;;;;;;;8.27;2.42;;;;;;;16.22;45.69;96108.78;10412828;28;20624;-65
2023/04/21 09:29:24;;;;;;;8.27;2.28;;;;;;;16.38;46.07;96115.44;10413453;28;20687;-65
2023/04/21 09:34:25;;;;;;;12.52;3.15;;;;;;;16.24;45.87;96124.44;10412680;28;20222;-64
2023/04/21 09:39:25;;;;;;;9.65;2.97;;;;;;;16.98;46.03;96159.38;10412681;28;20204;-65
2023/04/21 09:44:26;;;;;;;12.30;2.15;;;;;;;16.71;44.52;96098.66;10411824;28;20232;-63
2023/04/21 09:49:28;;;;;;;5.75;2.38;;;;;;;16.86;45.03;96116.94;10412449;28;20197;-64
2023/04/21 09:54:30;;;;;;;9.35;2.80;;;;;;;17.40;45.18;96153.69;10412448;28;20212;-64
2023/04/21 09:59:36;;;;;;;8.07;2.80;;;;;;;16.90;44.19;96107.53;10412771;28;20212;-65
2023/04/21 10:04:36;;;;;;;6.25;2.30;;;;;;;17.45;43.23;96098.25;10411137;28;20694;-63
2023/04/21 10:09:57;;;;;;;9.32;2.83;;;;;;;19.18;44.76;96196.53;10411221;28;20197;-65
2023/04/21 10:14:57;;;;;;;11.02;2.47;;;;;;;19.13;42.01;96115.94;10426522;28;20677;-65
2023/04/21 10:19:58;;;;;;;6.90;2.70;;;;;;;19.58;42.56;96136.75;10411650;28;20314;-65
2023/04/21 10:25:00;;;;;;;7.43;2.60;;;;;;;19.30;43.45;96155.97;10392850;23;20249;-65
2023/04/21 10:30:01;;;;;;;5.65;2.42;;;;;;;19.61;42.74;96150.38;10370683;28;20553;-65
2023/04/21 10:35:01;;;;;;;9.90;2.67;;;;;;;18.82;42.51;96113.25;10370745;28;20216;-66
2023/04/21 10:40:07;;;;;;;12.77;2.80;;;;;;;17.56;47.55;96184.94;10368938;28;20228;-65
2023/04/21 10:45:09;;;;;;;13.88;2.53;;;;;;;18.30;43.65;96118.94;10370383;28;20235;-67
2023/04/21 10:50:15;;;;;;;9.82;2.92;;;;;;;19.11;42.64;96118.84;10369940;28;20182;-66
2023/04/21 10:55:15;;;;;;;7.60;2.40;;;;;;;18.64;41.87;96078.78;10407322;28;20216;-66
2023/04/21 11:00:19;;;;;;;9.15;2.88;;;;;;;17.93;43.75;96105.63;10410660;28;20249;-67
2023/04/21 11:05:20;;;;;;;7.20;2.67;;;;;;;20.00;43.67;96165.97;10398050;28;20655;-66
2023/04/21 11:10:21;;;;;;;7.78;2.88;;;;;;;18.84;42.47;96100.56;10367101;28;20209;-66
2023/04/21 11:15:21;;;;;;;6.00;2.70;;;;;;;18.44;42.35;96074.50;10369218;28;20651;-67
2023/04/21 11:20:22;;;;;;;8.07;3.38;;;;;;;18.29;45.98;96158.94;10369000;28;20216;-65
2023/04/21 11:25:22;;;;;;;9.43;2.97;;;;;;;17.93;46.15;96150.69;10375900;28;20268;-66
2023/04/21 11:30:35;;;;;;;8.07;2.45;;;;;;;18.50;44.53;96126.69;10387244;28;20188;-65
2023/04/21 11:35:45;;;;;;;10.15;2.80;;;;;;;20.19;44.80;96198.59;10388645;28;20185;-66
2023/04/21 11:40:55;;;;;;;5.45;2.45;;;;;;;21.54;41.36;96157.72;10384731;28;20223;-67
2023/04/21 11:46:32;;;;;;;6.65;2.80;;;;;;;20.52;42.77;96145.81;10379586;28;20201;-67
2023/04/21 11:51:33;;;;;;;6.45;2.80;;;;;;;22.19;41.52;96174.22;10389899;28;20657;-67
2023/04/21 11:56:42;;;;;;;8.60;2.90;;;;;;;21.27;41.80;96155.63;10388247;28;20267;-68
2023/04/21 12:01:47;;;;;;;5.53;2.90;;;;;;;19.22;41.77;96058.84;10375642;28;20257;-68
2023/04/21 12:07:31;;;;;;;8.63;2.40;;;;;;;18.56;42.49;96071.94;10376349;28;20212;-68
2023/04/21 12:12:39;;;;;;;5.43;2.13;;;;;;;18.97;41.96;96066.94;10374779;28;20291;-68
2023/04/21 12:17:44;;;;;;;9.15;3.28;;;;;;;18.54;42.69;96064.19;10399840;28;20221;-66
2023/04/21 12:22:44;;;;;;;5.60;3.33;;;;;;;18.54;47.25;96175.63;10411769;28;20231;-68
2023/04/21 12:27:48;;;;;;;9.52;2.90;;;;;;;18.59;44.64;96127.19;10416073;28;20195;-68
2023/04/21 12:32:50;;;;;;;6.90;3.00;;;;;;;19.53;44.30;96160.53;10409521;28;20224;-68
2023/04/21 12:37:51;;;;;;;5.72;2.75;;;;;;;19.86;42.16;96106.06;10380739;28;20197;-68
2023/04/21 12:42:51;;;;;;;6.45;2.65;;;;;;;18.06;43.35;96059.63;10379833;28;20228;-67
2023/04/21 12:47:51;;;;;;;7.45;2.83;;;;;;;18.12;43.58;96073.84;10391158;28;20193;-67
2023/04/21 12:52:54;;;;;;;9.52;2.70;;;;;;;17.40;44.79;96072.41;10396420;28;20300;-67
2023/04/21 12:57:54;;;;;;;9.25;2.67;;;;;;;17.73;43.94;96075.81;10393640;28;20276;-67
2023/04/21 13:02:54;;;;;;;6.30;2.20;;;;;;;17.85;43.14;96060.03;10375175;28;20660;-67
2023/04/21 13:07:55;;;;;;;6.10;3.42;;;;;;;18.40;42.83;96072.53;10385094;28;20197;-68
2023/04/21 13:12:55;;;;;;;7.47;2.50;;;;;;;19.39;41.16;96061.63;10393905;28;20347;-68
2023/04/21 13:17:55;;;;;;;8.57;2.65;;;;;;;19.85;39.27;96014.88;10391251;28;20197;-67
2023/04/21 13:22:56;;;;;;;5.60;2.33;;;;;;;19.38;38.47;95975.81;10391380;28;20224;-68
2023/04/21 13:27:57;;;;;;;9.85;2.53;;;;;;;20.48;39.77;96047.03;10388114;28;20279;-68
2023/04/21 13:32:57;;;;;;;4.95;2.00;;;;;;;19.66;38.60;95981.47;10388965;28;20212;-68
2023/04/21 13:37:57;;;;;;;7.15;2.10;;;;;;;18.98;39.83;95986.28;10394444;28;20193;-66
2023/04/21 13:42:58;;;;;;;12.00;2.60;;;;;;;18.92;40.49;96003.09;10401658;28;20236;-67
2023/04/21 13:47:58;;;;;;;6.30;2.60;;;;;;;19.35;42.04;96047.19;10362797;28;20279;-67
2023/04/21 13:52:59;;;;;;;11.23;2.63;;;;;;;20.05;41.11;96045.63;10380851;28;20232;-68
2023/04/21 13:58:02;;;;;;;8.82;2.58;;;;;;;20.55;40.89;96055.72;10371607;28;20740;-66
2023/04/21 14:03:03;;;;;;;11.18;2.60;;;;;;;18.72;39.89;95959.06;10395355;28;20225;-66
2023/04/21 14:08:03;;;;;;;8.93;2.60;;;;;;;17.49;42.40;95974.97;10411956;28;20200;-65
2023/04/21 14:13:03;;;;;;;9.02;2.17;;;;;;;17.21;42.80;95980.72;10412194;28;20295;-66
2023/04/21 14:18:04;;;;;;;7.95;2.13;;;;;;;20.26;40.11;96015.75;10411154;28;20207;-68
2023/04/21 14:23:04;;;;;;;4.35;2.35;;;;;;;18.25;41.13;95961.53;10383948;28;20236;-67
2023/04/21 14:28:07;;;;;;;10.88;2.40;;;;;;;17.04;42.76;95961.91;10375820;28;20679;-67
2023/04/21 14:33:08;;;;;;;9.45;2.60;;;;;;;17.17;42.90;95969.75;10370599;28;20213;-66
2023/04/21 14:38:08;;;;;;;6.35;2.45;;;;;;;19.73;39.09;95958.25;10370420;28;21020;-66
2023/04/21 14:43:10;;;;;;;7.53;2.30;;;;;;;20.50;37.52;95938.50;10369985;28;20220;-67
2023/04/21 14:48:13;;;;;;;8.82;2.65;;;;;;;18.92;38.93;95888.97;10369998;28;20201;-66
2023/04/21 14:53:13;;;;;;;9.38;2.53;;;;;;;19.65;38.32;95911.59;10368503;28;20711;-65
2023/04/21 14:58:13;;;;;;;6.85;2.40;;;;;;;20.27;38.63;95945.53;10370036;28;20282;-66
2023/04/21 15:03:14;;;;;;;9.60;2.40;;;;;;;23.46;34.29;95935.53;10395069;28;20224;-65
2023/04/21 15:08:17;;;;;;;9.32;2.88;;;;;;;22.87;33.71;95893.69;10373644;28;20207;-66
2023/04/21 15:13:17;;;;;;;5.03;2.05;;;;;;;21.27;33.00;95800.47;10370173;28;21023;-66
2023/04/21 15:18:17;;;;;;;6.68;2.00;;;;;;;20.41;35.00;95831.69;10382345;28;20191;-65
2023/04/21 15:23:18;;;;;;;7.70;2.65;;;;;;;20.96;33.99;95829.34;10399622;28;20319;-65
2023/04/21 15:28:19;;;;;;;7.15;1.88;;;;;;;21.16;33.67;95810.19;10387837;28;20275;-65
2023/04/21 15:33:19;;;;;;;8.65;2.42;;;;;;;21.70;32.51;95793.53;10393960;28;20291;-66
2023/04/21 15:38:20;;;;;;;10.20;2.50;;;;;;;23.43;31.17;95813.09;10408872;28;20203;-67
2023/04/21 15:43:20;;;;;;;7.50;3.67;;;;;;;25.77;28.86;95826.06;10377687;28;20312;-66
2023/04/21 15:48:20;;;;;;;7.80;2.08;;;;;;;21.70;32.51;95766.88;10364822;28;20633;-66
2023/04/21 15:53:21;;;;;;;4.95;2.10;;;;;;;22.75;30.53;95745.13;10365441;28;20232;-65
2023/04/21 15:58:21;;;;;;;8.98;2.40;;;;;;;22.89;32.20;95819.44;10366008;28;20965;-66
2023/04/21 16:03:22;;;;;;;5.68;2.28;;;;;;;22.89;31.88;95812.22;10365890;28;20336;-67
2023/04/21 16:08:22;;;;;;;5.70;2.17;;;;;;;19.39;34.75;95769.47;10366517;28;20569;-66
2023/04/21 16:13:23;;;;;;;4.32;2.08;;;;;;;18.51;36.23;95788.78;10366706;28;20260;-66
2023/04/21 16:18:23;;;;;;;9.45;2.40;;;;;;;17.88;37.43;95797.25;10366737;28;20193;-65
2023/04/21 16:23:27;;;;;;;8.18;2.45;;;;;;;16.96;39.56;95827.25;10397201;23;20247;-66
2023/04/21 16:28:28;;;;;;;6.28;2.70;;;;;;;16.96;40.26;95846.59;10447727;28;20231;-66
2023/04/21 16:33:28;;;;;;;12.30;2.40;;;;;;;18.68;37.52;95827.88;10456717;28;20307;-66
2023/04/21 16:38:28;;;;;;;7.60;2.50;;;;;;;18.67;37.01;95808.53;10458376;28;20196;-66
2023/04/21 16:43:29;;;;;;;7.22;2.90;;;;;;;18.28;39.45;95858.47;10458492;28;20770;-66
2023/04/21 16:48:29;;;;;;;7.13;2.47;;;;;;;18.15;38.19;95810.97;10458389;28;20944;-66
2023/04/21 16:53:30;;;;;;;7.32;2.88;;;;;;;17.43;38.87;95806.41;10457185;28;20212;-65
2023/04/21 16:58:30;;;;;;;4.63;2.10;;;;;;;17.23;40.28;95833.09;10457489;28;20202;-66
2023/04/21 17:03:30;;;;;;;9.13;2.47;;;;;;;17.70;40.83;95866.97;10457108;28;20302;-66
2023/04/21 17:08:31;;;;;;;8.98;2.80;;;;;;;17.51;41.80;95877.59;10457268;28;20211;-66
2023/04/21 17:13:33;;;;;;;7.30;2.55;;;;;;;17.07;41.84;95866.22;10456771;28;20261;-66
2023/04/21 17:18:34;;;;;;;10.63;2.50;;;;;;;16.80;42.68;95878.84;10456661;28;20192;-66
2023/04/21 17:23:35;;;;;;;5.13;2.75;;;;;;;16.57;44.15;95917.28;10456009;28;20228;-66
2023/04/21 17:28:35;;;;;;;11.13;2.47;;;;;;;15.88;44.12;95872.13;10456106;28;20223;-66
2023/04/21 17:33:35;;;;;;;8.77;2.47;;;;;;;15.56;44.17;95879.94;10454172;28;20212;-66
2023/04/21 17:38:36;;;;;;;9.48;2.90;;;;;;;15.31;44.87;95893.00;10454642;28;20191;-66
2023/04/21 17:43:36;;;;;;;6.95;2.58;;;;;;;15.05;46.11;95909.69;10455339;28;20231;-66
2023/04/21 17:48:37;;;;;;;14.52;3.05;;;;;;;14.90;46.14;95913.34;10455685;28;20237;-67
2023/04/21 17:53:37;;;;;;;16.13;5.60;;;;;;;14.77;47.16;95931.81;10455271;28;20222;-66
2023/04/21 17:58:39;;;;;;;10.60;4.22;;;;;;;14.66;48.98;95975.41;10455155;28;20200;-67
2023/04/21 18:03:42;;;;;;;11.35;3.72;;;;;;;14.40;49.81;95981.38;10454826;28;20250;-67
2023/04/21 18:08:42;;;;;;;7.20;3.30;;;;;;;14.23;52.00;96037.06;10454824;28;20203;-67
2023/04/21 18:13:43;;;;;;;9.85;5.05;;;;;;;13.65;54.81;96070.75;10454353;28;20211;-66
2023/04/21 18:18:43;;;;;;;6.57;3.38;;;;;;;12.64;58.22;96117.09;10454203;28;20236;-67
2023/04/21 18:23:43;;;;;;;10.60;3.00;;;;;;;11.72;61.26;96151.56;10453703;28;20236;-67
2023/04/21 18:28:44;;;;;;;15.05;8.60;;;;;;;11.32;64.93;96206.78;10453762;28;20545;-66
2023/04/21 18:33:45;;;;;;;13.88;4.15;;;;;;;10.98;68.11;96231.53;10453609;28;20216;-68
2023/04/21 18:38:45;;;;;;;10.75;5.72;;;;;;;10.52;72.08;96254.94;10453600;28;20195;-67
2023/04/21 18:43:46;;;;;;;16.75;3.97;;;;;;;10.31;73.67;96232.69;10452854;28;20253;-66
2023/04/21 18:48:46;;;;;;;9.73;3.70;;;;;;;10.11;74.77;96220.97;10451935;28;20192;-67
2023/04/21 18:53:46;;;;;;;11.77;4.33;;;;;;;9.87;76.95;96227.03;10452119;28;20215;-66
2023/04/21 18:58:47;;;;;;;5.73;4.20;;;;;;;9.74;78.14;96227.50;10451880;28;20238;-67
2023/04/21 19:03:47;;;;;;;9.97;3.70;;;;;;;9.45;79.55;96236.66;10452025;28;20223;-67
2023/04/21 19:08:50;;;;;;;11.40;3.70;;;;;;;9.27;81.30;96234.97;10451663;28;20198;-67
2023/04/21 19:13:50;;;;;;;8.23;3.90;;;;;;;9.11;82.37;96237.53;10451520;28;20211;-67
2023/04/21 19:18:51;;;;;;;9.13;4.10;;;;;;;8.97;84.90;96248.59;10452402;28;20204;-67
2023/04/21 19:23:51;;;;;;;5.83;3.60;;;;;;;8.83;85.73;96250.00;10451673;28;20640;-67
2023/04/21 19:28:53;;;;;;;10.90;3.80;;;;;;;8.69;86.95;96254.03;10452079;28;20195;-67
2023/04/21 19:33:53;;;;;;;6.50;4.03;;;;;;;8.61;87.48;96249.59;10451629;28;20713;-67
2023/04/21 19:38:53;;;;;;;12.20;3.60;;;;;;;8.46;88.68;96253.75;10452055;28;20227;-67
2023/04/21 19:43:55;;;;;;;9.10;4.50;;;;;;;8.31;89.98;96248.25;10451544;28;20238;-67
2023/04/21 19:48:55;;;;;;;14.00;4.57;;;;;;;8.18;91.34;96251.28;10451860;28;20329;-67
2023/04/21 19:53:56;;;;;;;10.67;4.57;;;;;;;7.98;92.43;96253.25;10451769;28;20216;-66
2023/04/21 19:58:56;;;;;;;7.77;4.67;;;;;;;7.94;92.93;96259.72;10451228;28;20230;-67
2023/04/21 20:03:57;;;;;;;15.83;4.80;;;;;;;7.88;93.15;96253.31;10450484;28;20219;-66
2023/04/21 20:08:57;;;;;;;7.73;4.00;;;;;;;7.74;94.23;96259.06;10458340;28;20196;-65
2023/04/21 20:13:58;;;;;;;15.60;4.30;;;;;;;7.67;95.13;96259.69;10459335;28;20645;-66
2023/04/21 20:18:59;;;;;;;11.17;4.50;;;;;;;7.56;95.88;96253.84;10459045;28;20575;-66
2023/04/21 20:23:59;;;;;;;7.03;4.50;;;;;;;7.53;95.98;96260.19;10458369;28;20224;-66
2023/04/21 20:29:00;;;;;;;9.60;4.10;;;;;;;7.46;96.04;96259.97;10458914;28;20202;-66
2023/04/21 20:34:00;;;;;;;8.97;4.30;;;;;;;7.33;97.20;96267.31;10458055;28;20211;-66
2023/04/21 20:39:05;;;;;;;8.93;4.87;;;;;;;7.24;98.10;96270.81;10458693;28;20654;-66
2023/04/21 20:44:05;;;;;;;7.80;4.10;;;;;;;7.12;98.99;96273.63;10457908;28;20285;-65
2023/04/21 20:49:06;;;;;;;9.20;4.33;;;;;;;7.13;99.57;96277.03;10457950;28;20192;-66
2023/04/21 20:54:07;;;;;;;9.60;4.67;;;;;;;7.02;100.00;96270.25;10457892;28;20203;-66
2023/04/21 20:59:07;;;;;;;8.20;4.40;;;;;;;6.95;100.00;96277.81;10457881;28;20185;-66
2023/04/21 21:04:07;;;;;;;7.50;4.23;;;;;;;6.88;100.00;96283.75;10457257;28;20224;-66
2023/04/21 21:09:08;;;;;;;11.47;4.43;;;;;;;6.82;100.00;96286.94;10456844;28;20202;-65
2023/04/21 21:14:09;;;;;;;8.03;4.60;;;;;;;6.77;100.00;96297.78;10457099;28;20235;-66
2023/04/21 21:19:11;;;;;;;12.33;4.70;;;;;;;6.74;100.00;96292.84;10455545;28;20208;-66
2023/04/21 21:24:11;;;;;;;10.90;4.53;;;;;;;6.69;100.00;96295.88;10455596;28;20944;-66
2023/04/21 21:29:12;;;;;;;8.63;4.30;;;;;;;6.54;100.00;96302.50;10456402;28;20282;-65
2023/04/21 21:34:12;;;;;;;11.00;5.00;;;;;;;6.46;100.00;96323.19;10456070;28;20246;-66
2023/04/21 21:39:13;;;;;;;13.77;4.73;;;;;;;6.35;100.00;96309.38;10455910;28;20198;-66
2023/04/21 21:44:13;;;;;;;7.43;4.30;;;;;;;6.27;100.00;96314.47;10455819;28;20314;-66
2023/04/21 21:49:13;;;;;;;8.67;5.27;;;;;;;6.25;100.00;96311.19;10455867;28;20196;-66
2023/04/21 21:54:14;;;;;;;8.17;4.73;;;;;;;6.25;100.00;96321.59;10454523;28;20222;-66
2023/04/21 21:59:14;;;;;;;6.63;4.60;;;;;;;6.31;100.00;96330.63;10455643;28;20191;-66
2023/04/21 22:04:14;;;;;;;9.73;4.80;;;;;;;6.30;100.00;96335.00;10455146;28;20325;-66
2023/04/21 22:09:15;;;;;;;9.50;5.37;;;;;;;6.15;100.00;96333.78;10455175;28;20202;-66
2023/04/21 22:14:15;;;;;;;10.40;4.60;;;;;;;6.31;100.00;96338.41;10454980;28;20223;-66
2023/04/21 22:19:17;;;;;;;9.90;5.10;;;;;;;6.11;100.00;96328.06;10454735;28;20215;-66
2023/04/21 22:24:18;;;;;;;9.60;5.37;;;;;;;6.01;100.00;96341.03;10468816;22;20293;-65
2023/04/21 22:29:18;;;;;;;11.60;4.87;;;;;;;5.91;100.00;96347.97;10409990;28;20739;-65
2023/04/21 22:34:18;;;;;;;13.60;4.90;;;;;;;5.89;100.00;96352.50;10412933;28;20734;-65
2023/04/21 22:39:19;;;;;;;8.90;6.00;;;;;;;5.84;100.00;96358.13;10412573;28;20192;-65
2023/04/21 22:44:19;;;;;;;7.50;4.93;;;;;;;5.91;100.00;96353.19;10412341;28;20230;-65
2023/04/21 22:49:20;;;;;;;13.97;5.90;;;;;;;5.85;100.00;96353.72;10412538;28;20618;-66
2023/04/21 22:54:20;;;;;;;11.83;5.60;;;;;;;5.77;100.00;96348.41;10412005;28;20299;-65
2023/04/21 22:59:21;;;;;;;16.70;5.93;;;;;;;5.76;100.00;96344.97;10412293;28;20196;-65
2023/04/21 23:04:21;;;;;;;8.90;6.10;;;;;;;5.69;100.00;96352.47;10411544;28;20252;-65
2023/04/21 23:09:22;;;;;;;9.13;5.97;;;;;;;5.59;100.00;96350.81;10411908;28;20682;-66